createdAt,value
2023-01-06T00:00:43.652Z,41.26
2023-01-06T00:03:13.918Z,40.80
2023-01-06T00:05:44.673Z,41.44
2023-01-06T00:08:17.007Z,40.83
2023-01-06T00:10:47.390Z,40.87
2023-01-06T00:13:17.656Z,41.16
2023-01-06T00:15:48.175Z,41.33
2023-01-06T00:18:18.253Z,41.29
2023-01-06T00:20:48.722Z,41.10
2023-01-06T00:23:20.625Z,41.10
2023-01-06T00:25:54.194Z,40.90
2023-01-06T00:28:24.362Z,41.42
2023-01-06T00:30:54.371Z,41.04
2023-01-06T00:33:25.735Z,41.41
2023-01-06T00:36:01.291Z,41.19
2023-01-06T00:38:33.714Z,41.19
2023-01-06T00:41:27.715Z,41.15
2023-01-06T00:43:58.660Z,41.24
2023-01-06T00:46:29.911Z,41.46
2023-01-06T00:49:05.814Z,41.19
2023-01-06T00:51:37.858Z,41.22
2023-01-06T00:54:11.515Z,41.18
2023-01-06T00:56:43.104Z,41.29
2023-01-06T00:59:15.607Z,41.62
2023-01-06T01:01:47.845Z,41.09
2023-01-06T01:04:18.674Z,41.45
2023-01-06T01:06:51.141Z,41.20
2023-01-06T01:09:26.851Z,41.54
2023-01-06T01:12:12.800Z,41.48
2023-01-06T01:14:47.682Z,41.41
2023-01-06T01:17:21.037Z,41.66
2023-01-06T01:19:54.845Z,41.42
2023-01-06T01:22:26.458Z,41.59
2023-01-06T01:24:58.796Z,41.43
2023-01-06T01:27:28.856Z,41.05
2023-01-06T01:29:59.183Z,41.29
2023-01-06T01:32:29.629Z,41.56
2023-01-06T01:34:59.917Z,41.86
2023-01-06T01:37:31.436Z,41.86
2023-01-06T01:40:04.250Z,41.33
2023-01-06T01:42:33.991Z,41.69
2023-01-06T01:45:08.643Z,41.41
2023-01-06T01:47:49.239Z,41.51
2023-01-06T01:50:34.106Z,41.50
2023-01-06T01:53:12.215Z,41.57
2023-01-06T01:55:45.181Z,41.43
2023-01-06T01:58:20.689Z,41.56
2023-01-06T02:00:50.822Z,42.00
2023-01-06T02:03:23.889Z,41.49
2023-01-06T02:05:58.109Z,41.98
2023-01-06T02:08:37.903Z,41.50
2023-01-06T02:11:11.236Z,42.06
2023-01-06T02:13:47.861Z,41.90
2023-01-06T02:16:28.005Z,42.09
2023-01-06T02:19:10.082Z,41.82
2023-01-06T02:22:12.164Z,41.71
2023-01-06T02:25:35.489Z,41.66
2023-01-06T02:28:53.087Z,42.14
2023-01-06T02:32:01.254Z,41.76
2023-01-06T02:34:45.524Z,42.13
2023-01-06T02:37:37.745Z,42.05
2023-01-06T02:40:31.090Z,42.03
2023-01-06T02:43:16.331Z,42.24
2023-01-06T02:46:04.062Z,41.96
2023-01-06T02:48:46.977Z,41.98
2023-01-06T02:51:24.672Z,42.26
2023-01-06T02:54:10.406Z,41.74
2023-01-06T02:56:48.464Z,42.07
2023-01-06T02:59:28.264Z,41.98
2023-01-06T03:02:01.923Z,42.13
2023-01-06T03:04:41.596Z,42.39
2023-01-06T03:07:16.587Z,42.03
2023-01-06T03:09:48.357Z,42.28
2023-01-06T03:12:29.382Z,42.27
2023-01-06T03:14:59.544Z,41.99
2023-01-06T03:17:30.547Z,42.19
2023-01-06T03:20:07.013Z,42.12
2023-01-06T03:22:41.465Z,41.94
2023-01-06T03:25:12.902Z,42.37
2023-01-06T03:27:43.194Z,42.47
2023-01-06T03:30:15.373Z,42.24
2023-01-06T03:33:01.868Z,42.40
2023-01-06T03:35:58.452Z,42.54
2023-01-06T03:38:44.458Z,42.22
2023-01-06T03:41:50.013Z,41.93
2023-01-06T03:44:33.996Z,42.14
2023-01-06T03:47:14.977Z,42.13
2023-01-06T03:49:58.846Z,42.55
2023-01-06T03:52:37.564Z,41.94
2023-01-06T03:55:16.506Z,42.35
2023-01-06T03:57:53.624Z,42.36
2023-01-06T04:00:29.392Z,42.00
2023-01-06T04:02:59.973Z,42.10
2023-01-06T04:05:32.177Z,42.52
2023-01-06T04:08:05.092Z,42.22
2023-01-06T04:10:35.034Z,42.15
2023-01-06T04:13:03.728Z,42.17
2023-01-06T04:15:34.191Z,42.40
2023-01-06T04:18:05.115Z,42.09
2023-01-06T04:20:35.684Z,42.21
2023-01-06T04:23:08.160Z,42.32
2023-01-06T04:25:38.948Z,42.44
2023-01-06T04:28:09.455Z,42.19
2023-01-06T04:30:39.827Z,42.21
2023-01-06T04:33:10.255Z,42.58
2023-01-06T04:35:40.366Z,42.35
2023-01-06T04:38:12.861Z,42.29
2023-01-06T04:40:44.844Z,42.77
2023-01-06T04:43:16.749Z,42.46
2023-01-06T04:45:47.610Z,42.62
2023-01-06T04:48:18.065Z,42.98
2023-01-06T04:50:48.461Z,42.87
2023-01-06T04:53:19.846Z,42.88
2023-01-06T04:55:50.782Z,43.15
2023-01-06T04:58:21.076Z,43.14
2023-01-06T05:00:51.481Z,43.14
2023-01-06T05:03:21.427Z,43.13
2023-01-06T05:05:51.755Z,43.23
2023-01-06T05:08:26.582Z,43.29
2023-01-06T05:11:04.011Z,43.13
2023-01-06T05:13:35.666Z,43.13
2023-01-06T05:16:10.319Z,43.34
2023-01-06T05:18:40.776Z,42.96
2023-01-06T05:21:10.784Z,43.00
2023-01-06T05:23:43.441Z,43.05
2023-01-06T05:26:21.816Z,43.35
2023-01-06T05:28:52.587Z,43.14
2023-01-06T05:31:23.395Z,42.87
2023-01-06T05:33:53.945Z,43.33
2023-01-06T05:36:24.573Z,43.46
2023-01-06T05:38:57.949Z,43.10
2023-01-06T05:41:28.970Z,43.57
2023-01-06T05:44:00.615Z,43.31
2023-01-06T05:46:30.797Z,43.35
2023-01-06T05:49:03.801Z,43.20
2023-01-06T05:51:34.444Z,43.63
2023-01-06T05:54:11.461Z,43.40
2023-01-06T05:56:41.056Z,43.38
2023-01-06T05:59:11.779Z,43.47
2023-01-06T06:01:42.081Z,43.53
2023-01-06T06:04:14.446Z,43.45
2023-01-06T06:06:44.752Z,44.02
2023-01-06T06:09:17.717Z,43.58
2023-01-06T06:11:47.600Z,43.39
2023-01-06T06:14:18.070Z,43.75
2023-01-06T06:16:48.718Z,43.58
2023-01-06T06:19:19.309Z,43.85
2023-01-06T06:21:49.789Z,43.82
2023-01-06T06:24:22.031Z,43.67
2023-01-06T06:26:51.783Z,44.10
2023-01-06T06:29:22.219Z,43.78
2023-01-06T06:31:52.690Z,44.20
2023-01-06T06:34:27.403Z,43.60
2023-01-06T06:36:57.836Z,44.08
2023-01-06T06:39:30.130Z,43.71
2023-01-06T06:42:00.620Z,43.59
2023-01-06T06:44:30.611Z,43.83
2023-01-06T06:47:01.817Z,43.95
2023-01-06T06:49:32.272Z,43.80
2023-01-06T06:52:02.688Z,43.88
2023-01-06T06:54:41.826Z,44.02
2023-01-06T06:57:12.458Z,44.10
2023-01-06T06:59:42.554Z,44.41
2023-01-06T07:02:13.354Z,44.23
2023-01-06T07:04:43.753Z,45.08
2023-01-06T07:07:14.254Z,45.17
2023-01-06T07:09:46.737Z,45.32
2023-01-06T07:12:17.534Z,45.52
2023-01-06T07:14:47.551Z,45.48
2023-01-06T07:17:17.823Z,45.60
2023-01-06T07:19:48.437Z,46.01
2023-01-06T07:22:18.849Z,45.49
2023-01-06T07:24:51.017Z,45.88
2023-01-06T07:27:21.177Z,45.75
2023-01-06T07:29:51.078Z,45.82
2023-01-06T07:32:21.125Z,45.82
2023-01-06T07:34:51.809Z,45.84
2023-01-06T07:37:22.801Z,45.55
2023-01-06T07:39:55.152Z,45.30
2023-01-06T07:42:25.559Z,45.21
2023-01-06T07:44:55.481Z,44.98
2023-01-06T07:47:25.407Z,45.00
2023-01-06T07:49:55.581Z,44.76
2023-01-06T07:52:25.310Z,44.78
2023-01-06T07:54:59.957Z,44.49
2023-01-06T07:57:32.022Z,44.69
2023-01-06T08:00:02.615Z,44.16
2023-01-06T08:02:33.087Z,44.18
2023-01-06T08:05:03.805Z,44.21
2023-01-06T08:07:34.428Z,43.90
2023-01-06T08:10:06.572Z,43.68
2023-01-06T08:12:37.606Z,43.42
2023-01-06T08:15:09.047Z,43.27
2023-01-06T08:17:40.076Z,42.86
2023-01-06T08:20:11.546Z,43.03
2023-01-06T08:22:42.130Z,42.85
2023-01-06T08:25:15.235Z,43.01
2023-01-06T08:27:45.289Z,42.45
2023-01-06T08:30:20.459Z,42.21
2023-01-06T08:32:50.890Z,41.96
2023-01-06T08:35:20.943Z,41.34
2023-01-06T08:37:51.493Z,40.75
2023-01-06T08:40:23.497Z,40.54
2023-01-06T08:42:54.005Z,40.55
2023-01-06T08:45:24.438Z,40.62
2023-01-06T08:47:54.499Z,39.67
2023-01-06T08:50:26.572Z,39.75
2023-01-06T08:52:57.801Z,39.61
2023-01-06T08:55:29.882Z,39.60
2023-01-06T08:58:00.030Z,39.50
2023-01-06T09:00:30.449Z,39.27
2023-01-06T09:03:01.167Z,39.15
2023-01-06T09:05:31.944Z,39.14
2023-01-06T09:08:02.459Z,39.16
2023-01-06T09:10:34.596Z,39.12
2023-01-06T09:13:05.081Z,39.21
2023-01-06T09:15:35.606Z,39.06
2023-01-06T09:18:05.567Z,38.78
2023-01-06T09:20:35.457Z,39.01
2023-01-06T09:23:05.904Z,38.95
2023-01-06T09:25:38.444Z,39.16
2023-01-06T09:28:10.896Z,39.44
2023-01-06T09:30:41.351Z,39.18
2023-01-06T09:33:11.787Z,39.54
2023-01-06T09:35:42.437Z,39.06
2023-01-06T09:38:12.831Z,39.41
2023-01-06T09:41:09.333Z,39.39
2023-01-06T09:43:53.740Z,39.34
2023-01-06T09:46:30.495Z,39.42
2023-01-06T09:49:08.979Z,39.34
2023-01-06T09:51:41.018Z,39.66
2023-01-06T09:54:20.476Z,39.70
2023-01-06T09:57:02.618Z,39.74
2023-01-06T09:59:40.852Z,39.69
2023-01-06T10:02:21.701Z,39.81
2023-01-06T10:04:53.351Z,39.80
2023-01-06T10:07:36.745Z,40.04
2023-01-06T10:10:25.002Z,40.15
2023-01-06T10:13:14.457Z,40.18
2023-01-06T10:15:58.419Z,40.30
2023-01-06T10:18:51.992Z,40.47
2023-01-06T10:21:33.060Z,40.39
2023-01-06T10:24:33.791Z,40.46
2023-01-06T10:27:27.387Z,40.66
2023-01-06T10:30:03.185Z,40.80
2023-01-06T10:32:39.584Z,40.59
2023-01-06T10:35:17.961Z,40.74
2023-01-06T10:37:51.676Z,40.91
2023-01-06T10:40:25.971Z,40.67
2023-01-06T10:43:04.439Z,40.97
2023-01-06T10:45:42.358Z,41.03
2023-01-06T10:48:17.845Z,40.83
2023-01-06T10:50:48.263Z,40.78
2023-01-06T10:53:19.963Z,40.95
2023-01-06T10:55:55.136Z,41.02
2023-01-06T10:58:36.796Z,40.58
2023-01-06T11:01:16.146Z,40.71
2023-01-06T11:03:47.661Z,41.05
2023-01-06T11:06:27.319Z,41.19
2023-01-06T11:08:58.134Z,41.35
2023-01-06T11:11:29.507Z,41.10
2023-01-06T11:14:05.977Z,41.13
2023-01-06T11:16:39.887Z,41.18
2023-01-06T11:19:25.807Z,41.39
2023-01-06T11:21:57.678Z,41.14
2023-01-06T11:24:29.869Z,41.14
2023-01-06T11:27:02.751Z,41.05
2023-01-06T11:29:36.800Z,41.24
2023-01-06T11:32:19.364Z,41.10
2023-01-06T11:34:58.637Z,41.37
2023-01-06T11:37:38.333Z,41.55
2023-01-06T11:40:27.244Z,41.41
2023-01-06T11:43:03.375Z,41.18
2023-01-06T11:45:38.676Z,41.38
2023-01-06T11:48:19.765Z,41.55
2023-01-06T11:51:00.527Z,41.54
2023-01-06T11:53:33.901Z,41.72
2023-01-06T11:56:06.834Z,41.46
2023-01-06T11:58:55.514Z,41.31
2023-01-06T12:01:35.182Z,41.56
2023-01-06T12:04:22.146Z,41.26
2023-01-06T12:06:58.338Z,41.40
2023-01-06T12:09:36.895Z,41.55
2023-01-06T12:12:10.643Z,41.35
2023-01-06T12:14:42.661Z,41.16
2023-01-06T12:17:22.128Z,41.23
2023-01-06T12:20:04.096Z,41.66
2023-01-06T12:22:44.379Z,41.20
2023-01-06T12:25:22.075Z,41.67
2023-01-06T12:27:58.332Z,41.46
2023-01-06T12:30:37.396Z,41.61
2023-01-06T12:33:20.081Z,41.46
2023-01-06T12:35:56.654Z,41.69
2023-01-06T12:38:50.168Z,41.58
2023-01-06T12:41:31.137Z,41.71
2023-01-06T12:44:14.286Z,41.72
2023-01-06T12:46:57.728Z,41.73
2023-01-06T12:49:41.076Z,41.56
2023-01-06T12:52:21.048Z,41.93
2023-01-06T12:54:59.893Z,41.74
2023-01-06T12:57:56.318Z,41.77
2023-01-06T13:00:48.358Z,42.11
2023-01-06T13:03:54.484Z,41.88
2023-01-06T13:06:41.270Z,42.01
2023-01-06T13:09:37.749Z,41.85
2023-01-06T13:12:45.059Z,42.23
2023-01-06T13:15:23.564Z,42.51
2023-01-06T13:18:08.924Z,42.25
2023-01-06T13:20:47.014Z,42.12
2023-01-06T13:23:40.657Z,42.17
2023-01-06T13:27:01.939Z,42.62
2023-01-06T13:29:54.200Z,42.39
2023-01-06T13:32:50.061Z,42.42
2023-01-06T13:35:53.833Z,42.93
2023-01-06T13:38:55.384Z,42.73
2023-01-06T13:41:37.832Z,42.91
2023-01-06T13:44:18.433Z,42.97
2023-01-06T13:46:50.928Z,42.70
2023-01-06T13:49:21.949Z,43.29
2023-01-06T13:51:56.129Z,42.91
2023-01-06T13:55:07.912Z,42.96
2023-01-06T13:57:42.321Z,43.18
2023-01-06T14:00:31.539Z,43.59
2023-01-06T14:03:26.890Z,43.47
2023-01-06T14:06:01.200Z,43.49
2023-01-06T14:08:37.024Z,43.44
2023-01-06T14:11:29.901Z,43.21
2023-01-06T14:14:04.901Z,43.91
2023-01-06T14:16:47.906Z,43.55
2023-01-06T14:19:25.131Z,43.58
2023-01-06T14:21:58.115Z,43.57
2023-01-06T14:24:36.024Z,43.90
2023-01-06T14:27:08.828Z,43.71
2023-01-06T14:30:08.443Z,43.88
2023-01-06T14:33:26.269Z,44.08
2023-01-06T14:36:09.295Z,44.05
2023-01-06T14:38:49.136Z,44.10
2023-01-06T14:41:33.120Z,44.20
2023-01-06T14:44:13.615Z,44.14
2023-01-06T14:46:53.413Z,44.19
2023-01-06T14:49:29.983Z,44.33
2023-01-06T14:52:08.832Z,43.95
2023-01-06T14:54:45.327Z,44.13
2023-01-06T14:57:29.333Z,44.17
2023-01-06T15:00:16.025Z,44.38
2023-01-06T15:02:55.921Z,44.45
2023-01-06T15:05:30.782Z,44.52
2023-01-06T15:08:04.664Z,44.22
2023-01-06T15:10:38.828Z,44.78
2023-01-06T15:13:23.852Z,44.50
2023-01-06T15:16:02.176Z,44.52
2023-01-06T15:18:36.316Z,44.26
2023-01-06T15:21:08.221Z,44.62
2023-01-06T15:23:45.272Z,44.84
2023-01-06T15:26:20.840Z,44.28
2023-01-06T15:29:03.577Z,44.77
2023-01-06T15:31:39.820Z,44.56
2023-01-06T15:34:18.804Z,44.46
2023-01-06T15:36:53.144Z,45.02
2023-01-06T15:39:29.901Z,44.77
2023-01-06T15:42:02.400Z,45.06
2023-01-06T15:44:35.442Z,44.83
2023-01-06T15:47:25.919Z,44.61
2023-01-06T15:50:02.947Z,45.18
2023-01-06T15:52:39.176Z,45.21
2023-01-06T15:55:23.774Z,45.15
2023-01-06T15:58:01.398Z,45.05
2023-01-06T16:00:38.174Z,45.12
2023-01-06T16:03:09.933Z,45.36
2023-01-06T16:05:51.015Z,45.17
2023-01-06T16:08:28.386Z,45.18
2023-01-06T16:11:46.296Z,45.11
2023-01-06T16:14:32.795Z,45.14
2023-01-06T16:17:13.821Z,45.25
2023-01-06T16:20:00.414Z,45.42
2023-01-06T16:22:38.810Z,45.19
2023-01-06T16:25:26.334Z,45.13
2023-01-06T16:28:00.288Z,45.54
2023-01-06T16:30:32.065Z,45.31
2023-01-06T16:33:03.154Z,45.49
2023-01-06T16:35:37.623Z,45.88
2023-01-06T16:38:09.751Z,45.88
2023-01-06T16:40:42.628Z,45.36
2023-01-06T16:43:12.277Z,45.55
2023-01-06T16:45:49.159Z,45.68
2023-01-06T16:48:20.393Z,45.80
2023-01-06T16:50:55.018Z,45.48
2023-01-06T16:53:28.175Z,46.11
2023-01-06T16:56:00.152Z,45.98
2023-01-06T16:58:34.165Z,46.41
2023-01-06T17:01:15.832Z,45.79
2023-01-06T17:03:47.378Z,46.20
2023-01-06T17:06:22.270Z,46.05
2023-01-06T17:08:59.367Z,46.33
2023-01-06T17:11:38.827Z,46.04
2023-01-06T17:14:18.481Z,46.08
2023-01-06T17:16:49.683Z,45.97
2023-01-06T17:19:26.980Z,46.15
2023-01-06T17:22:07.165Z,46.62
2023-01-06T17:24:39.243Z,46.84
2023-01-06T17:27:23.901Z,46.77
2023-01-06T17:29:55.293Z,46.51
2023-01-06T17:32:36.508Z,46.52
2023-01-06T17:35:29.398Z,46.67
2023-01-06T17:38:05.539Z,46.91
2023-01-06T17:40:38.937Z,46.81
2023-01-06T17:43:25.162Z,46.84
2023-01-06T17:45:55.958Z,46.87
2023-01-06T17:48:27.012Z,46.79
2023-01-06T17:50:59.525Z,46.88
2023-01-06T17:53:51.591Z,47.23
2023-01-06T17:56:26.400Z,46.92
2023-01-06T17:58:56.408Z,46.84
2023-01-06T18:01:30.275Z,46.84
2023-01-06T18:04:01.474Z,46.90
2023-01-06T18:06:38.321Z,47.05
2023-01-06T18:09:18.131Z,47.29
2023-01-06T18:11:53.123Z,46.92
2023-01-06T18:14:30.419Z,47.25
2023-01-06T18:17:20.257Z,47.27
2023-01-06T18:19:51.526Z,46.80
2023-01-06T18:22:25.264Z,46.98
2023-01-06T18:25:00.424Z,46.82
2023-01-06T18:27:35.164Z,47.04
2023-01-06T18:30:22.353Z,47.07
2023-01-06T18:32:54.505Z,47.17
2023-01-06T18:35:29.314Z,47.32
2023-01-06T18:38:06.302Z,47.57
2023-01-06T18:40:39.670Z,47.15
2023-01-06T18:43:30.149Z,47.46
2023-01-06T18:46:03.983Z,47.34
2023-01-06T18:48:38.461Z,47.29
2023-01-06T18:51:20.975Z,47.23
2023-01-06T18:53:55.110Z,47.06
2023-01-06T18:56:27.353Z,47.19
2023-01-06T18:59:01.504Z,47.49
2023-01-06T19:01:40.380Z,47.20
2023-01-06T19:04:22.600Z,47.28
2023-01-06T19:06:59.078Z,47.31
2023-01-06T19:09:36.279Z,47.41
2023-01-06T19:12:32.631Z,47.15
2023-01-06T19:15:24.848Z,47.59
2023-01-06T19:17:55.989Z,47.37
2023-01-06T19:20:36.289Z,47.20
2023-01-06T19:23:20.828Z,47.20
2023-01-06T19:26:02.319Z,47.55
2023-01-06T19:28:37.784Z,47.83
2023-01-06T19:31:22.817Z,47.57
2023-01-06T19:34:00.138Z,47.54
2023-01-06T19:36:53.387Z,47.25
2023-01-06T19:39:33.130Z,47.58
2023-01-06T19:42:19.808Z,47.74
2023-01-06T19:44:55.141Z,47.23
2023-01-06T19:47:30.450Z,47.48
2023-01-06T19:50:14.940Z,47.58
2023-01-06T19:52:44.701Z,47.47
2023-01-06T19:55:25.035Z,47.65
2023-01-06T19:57:59.247Z,47.40
2023-01-06T20:00:51.007Z,47.40
2023-01-06T20:03:31.904Z,47.46
2023-01-06T20:06:03.115Z,47.70
2023-01-06T20:08:33.711Z,47.76
2023-01-06T20:11:04.328Z,47.34
2023-01-06T20:13:34.768Z,47.91
2023-01-06T20:16:04.989Z,47.39
2023-01-06T20:18:37.740Z,47.64
2023-01-06T20:21:11.089Z,47.76
2023-01-06T20:23:40.961Z,47.78
2023-01-06T20:26:10.972Z,47.58
2023-01-06T20:28:41.468Z,48.04
2023-01-06T20:31:11.868Z,47.51
2023-01-06T20:33:43.642Z,47.75
2023-01-06T20:36:17.434Z,47.55
2023-01-06T20:38:47.544Z,47.55
2023-01-06T20:41:18.060Z,47.80
2023-01-06T20:43:48.439Z,47.50
2023-01-06T20:46:19.064Z,47.58
2023-01-06T20:48:51.792Z,47.37
2023-01-06T20:51:22.480Z,47.57
2023-01-06T20:53:52.771Z,47.59
2023-01-06T20:56:22.536Z,47.60
2023-01-06T20:58:53.079Z,47.70
2023-01-06T21:01:23.080Z,47.75
2023-01-06T21:03:55.029Z,47.70
2023-01-06T21:06:25.000Z,47.93
2023-01-06T21:08:54.676Z,47.79
2023-01-06T21:11:25.557Z,48.05
2023-01-06T21:13:55.990Z,47.85
2023-01-06T21:16:27.315Z,47.81
2023-01-06T21:18:59.780Z,47.57
2023-01-06T21:21:30.178Z,47.44
2023-01-06T21:24:00.840Z,47.84
2023-01-06T21:26:31.339Z,47.98
2023-01-06T21:29:01.664Z,47.72
2023-01-06T21:31:32.033Z,47.29
2023-01-06T21:34:04.781Z,47.52
2023-01-06T21:36:36.238Z,47.22
2023-01-06T21:39:08.087Z,47.84
2023-01-06T21:41:55.275Z,47.25
2023-01-06T21:44:25.796Z,47.20
2023-01-06T21:46:55.822Z,47.46
2023-01-06T21:49:28.137Z,47.71
2023-01-06T21:51:59.861Z,47.53
2023-01-06T21:54:30.407Z,47.54
2023-01-06T21:57:01.032Z,47.90
2023-01-06T21:59:31.704Z,47.82
2023-01-06T22:02:02.280Z,47.59
2023-01-06T22:04:34.402Z,47.76
2023-01-06T22:07:09.622Z,47.48
2023-01-06T22:09:43.419Z,47.44
2023-01-06T22:12:17.014Z,47.55
2023-01-06T22:14:48.376Z,47.02
2023-01-06T22:17:19.167Z,47.51
2023-01-06T22:19:54.917Z,47.44
2023-01-06T22:22:27.076Z,47.25
2023-01-06T22:24:59.128Z,47.38
2023-01-06T22:27:29.599Z,47.57
2023-01-06T22:29:59.555Z,47.30
2023-01-06T22:32:30.132Z,47.56
2023-01-06T22:35:03.048Z,47.23
2023-01-06T22:37:33.492Z,47.08
2023-01-06T22:40:03.899Z,47.17
2023-01-06T22:42:34.441Z,47.30
2023-01-06T22:45:05.048Z,47.17
2023-01-06T22:47:35.626Z,47.39
2023-01-06T22:50:09.253Z,47.48
2023-01-06T22:52:39.864Z,47.19
2023-01-06T22:55:12.405Z,47.51
2023-01-06T22:57:42.907Z,47.15
2023-01-06T23:00:19.518Z,47.34
2023-01-06T23:02:49.716Z,47.39
2023-01-06T23:05:22.126Z,47.18
2023-01-06T23:07:51.996Z,47.36
2023-01-06T23:10:22.889Z,47.64
2023-01-06T23:12:53.964Z,47.67
2023-01-06T23:15:24.450Z,47.26
2023-01-06T23:17:54.901Z,47.23
2023-01-06T23:20:27.138Z,47.27
2023-01-06T23:22:57.751Z,47.38
2023-01-06T23:25:27.892Z,47.60
2023-01-06T23:27:58.228Z,47.01
2023-01-06T23:30:28.867Z,47.25
2023-01-06T23:32:59.329Z,47.25
2023-01-06T23:35:34.143Z,47.41
2023-01-06T23:38:04.570Z,47.12
2023-01-06T23:40:35.032Z,47.04
2023-01-06T23:43:05.393Z,47.11
2023-01-06T23:45:35.595Z,47.31
2023-01-06T23:48:06.355Z,47.58
2023-01-06T23:50:38.607Z,47.39
2023-01-06T23:53:08.784Z,47.27
2023-01-06T23:55:38.738Z,47.32
2023-01-06T23:58:08.816Z,47.35
